tititudorancea.com
Station Historical Data
Daily Summary for April 25, 2018 Units:  Metric    English   Both
« Previous Day
Next Day »
Daily Weekly Monthly Yearly Custom
  High: Low: Average:
Temperature: -17.8 °C 7.4 °C 13.7 °C
Dew Point: -17.8 °C 6.7 °C 8.8 °C
Humidity: Humidity % 43 % 75 %
Wind Speed: 0 km/h 0 km/h 4 km/h
Wind Gust: 0 km/h - -
Wind:- - West
Pressure: 0 hPa 1013.4 hPa -
Precipitation: 0 mm    
Historical Graphs
 
 
Ararat weather Find more about Weather in Ararat, AU


 



 


Tabular Data for April 25, 2018
Time Temperature Dew Point Pressure Wind Wind Speed Wind Gust Humidity Rainfall Rate (Hourly)
-17.8 °C -17.8 °C 0 hPa Calm     Humidity % 0 mm
00:03 13.4 °C 11.9 °C 1015.5 hPa Calm   1.9 km/h 91 % 0 mm
00:08 13.3 °C 11.9 °C 1015.5 hPa SW 0.8 km/h 3.7 km/h 91 % 0 mm
00:13 13.3 °C 11.8 °C 1015.5 hPa Calm     91 % 0 mm
00:18 13.2 °C 11.7 °C 1015.5 hPa Calm   1.9 km/h 91 % 0 mm
00:23 13.1 °C 11.7 °C 1015.5 hPa Calm     91 % 0 mm
00:28 13 °C 11.6 °C 1015.5 hPa North 1.8 km/h 3.7 km/h 91 % 0 mm
00:33 12.9 °C 11.7 °C 1015.5 hPa North 2.1 km/h 3.7 km/h 92 % 0 mm
00:38 12.9 °C 11.6 °C 1015.5 hPa Calm     92 % 0 mm
00:43 12.8 °C 11.5 °C 1015.5 hPa Calm     92 % 0 mm
00:48 12.7 °C 11.2 °C 1015.5 hPa Calm     91 % 0 mm
00:51 12.5 °C 11.1 °C 1015.5 hPa Calm     91 % 0 mm
00:56 12.3 °C 10.8 °C 1015.5 hPa Calm     91 % 0 mm
01:01 12.1 °C 10.7 °C 1015.5 hPa SW 1.3 km/h 3.7 km/h 91 % 0 mm
01:06 12 °C 10.7 °C 1015.5 hPa Calm     92 % 0 mm
01:11 11.9 °C 10.7 °C 1015.5 hPa Calm     92 % 0 mm
01:16 11.9 °C 10.6 °C 1015.5 hPa Calm     92 % 0 mm
01:21 11.9 °C 10.6 °C 1015.5 hPa North 1.6 km/h 3.7 km/h 92 % 0 mm
01:26 11.8 °C 10.5 °C 1015.5 hPa SW 3.4 km/h 5.6 km/h 92 % 0 mm
01:31 11.8 °C 10.7 °C 1015.5 hPa Calm     93 % 0 mm
01:36 11.8 °C 10.7 °C 1015.5 hPa North 2.3 km/h 3.7 km/h 93 % 0 mm
01:41 11.8 °C 10.7 °C 1015.5 hPa SW 2.7 km/h 5.6 km/h 93 % 0 mm
01:46 11.9 °C 10.8 °C 1015.5 hPa North 4.8 km/h 5.6 km/h 93 % 0 mm
01:51 12 °C 10.9 °C 1015.5 hPa SW 2.7 km/h 5.6 km/h 93 % 0 mm
01:56 12.1 °C 10.9 °C 1015.5 hPa North 4 km/h 5.6 km/h 93 % 0 mm
02:01 12.1 °C 11 °C 1015.5 hPa SW 3.5 km/h 5.6 km/h 93 % 0 mm
02:06 12.1 °C 11 °C 1015.5 hPa SW 4.3 km/h 5.6 km/h 93 % 0 mm
02:11 12.1 °C 10.9 °C 1015.5 hPa SW 3.4 km/h 5.6 km/h 93 % 0 mm
02:16 12 °C 10.9 °C 1015.1 hPa SW 5 km/h 5.6 km/h 93 % 0 mm
02:21 11.9 °C 10.8 °C 1015.1 hPa SW 3.1 km/h 5.6 km/h 93 % 0 mm
02:26 11.7 °C 10.6 °C 1015.1 hPa SW 3.5 km/h 5.6 km/h 93 % 0 mm
02:31 11.7 °C 10.6 °C 1015.1 hPa North 2.6 km/h 5.6 km/h 93 % 0 mm
02:36 11.6 °C 10.5 °C 1015.1 hPa North 0.8 km/h 3.7 km/h 93 % 0 mm
02:41 11.4 °C 10.3 °C 1015.1 hPa SW 1.1 km/h 3.7 km/h 93 % 0 mm
02:43 11.4 °C 10.3 °C 1015.1 hPa North 3.2 km/h 5.6 km/h 93 % 0 mm
02:48 11.2 °C 10.1 °C 1015.1 hPa North 3.1 km/h 5.6 km/h 93 % 0 mm
02:53 11.2 °C 10.1 °C 1014.8 hPa North 2.4 km/h 5.6 km/h 93 % 0 mm
02:58 11 °C 9.9 °C 1014.8 hPa SW 1.3 km/h 3.7 km/h 93 % 0 mm
03:03 10.7 °C 9.6 °C 1014.8 hPa Calm     93 % 0 mm
03:08 10.7 °C 9.6 °C 1015.1 hPa Calm     93 % 0 mm
03:13 10.7 °C 9.8 °C 1015.1 hPa Calm     94 % 0 mm
03:18 10.6 °C 9.4 °C 1015.1 hPa Calm     93 % 0 mm
03:23 10.3 °C 9.2 °C 1015.1 hPa Calm     93 % 0 mm
03:28 10.1 °C 9.1 °C 1015.1 hPa Calm     93 % 0 mm
03:33 9.9 °C 8.9 °C 1015.1 hPa Calm     93 % 0 mm
03:38 9.8 °C 8.8 °C 1015.1 hPa Calm     93 % 0 mm
03:43 9.7 °C 8.6 °C 1015.1 hPa Calm     93 % 0 mm
03:48 9.5 °C 8.4 °C 1014.8 hPa North 1.1 km/h 3.7 km/h 93 % 0 mm
03:53 9.5 °C 8.6 °C 1015.1 hPa Calm     94 % 0 mm
03:58 9.3 °C 8.3 °C 1015.1 hPa Calm     93 % 0 mm
04:03 9.2 °C 8.3 °C 1015.1 hPa Calm     94 % 0 mm
04:04 9.3 °C 8.4 °C 1015.1 hPa Calm     94 % 0 mm
04:09 9.4 °C 8.5 °C 1015.1 hPa North 2.7 km/h 3.7 km/h 94 % 0 mm
04:14 9.7 °C 8.9 °C 1015.1 hPa Calm     95 % 0 mm
04:19 10 °C 9.2 °C 1015.1 hPa SW 3.4 km/h 5.6 km/h 95 % 0 mm
04:24 10.2 °C 9.4 °C 1015.1 hPa Calm     95 % 0 mm
04:29 10.2 °C 9.4 °C 1015.1 hPa Calm   3.7 km/h 95 % 0 mm
04:34 10.2 °C 9.4 °C 1015.1 hPa North 1.1 km/h 3.7 km/h 95 % 0 mm
04:39 10.2 °C 9.4 °C 1015.1 hPa Calm     95 % 0 mm
04:44 10.2 °C 9.3 °C 1015.1 hPa Calm     94 % 0 mm
04:49 10.2 °C 9.4 °C 1015.1 hPa Calm     95 % 0 mm
04:54 10.2 °C 9.2 °C 1015.1 hPa SW 1 km/h 3.7 km/h 94 % 0 mm
04:59 10.2 °C 9.4 °C 1015.1 hPa Calm     95 % 0 mm
05:04 10.2 °C 9.4 °C 1014.8 hPa Calm     95 % 0 mm
05:09 10.2 °C 9.2 °C 1015.1 hPa Calm     94 % 0 mm
05:14 10.1 °C 9.1 °C 1015.1 hPa Calm     94 % 0 mm
05:19 10 °C 9.2 °C 1015.1 hPa Calm     95 % 0 mm
05:24 9.8 °C 8.9 °C 1015.5 hPa Calm     94 % 0 mm
05:29 9.7 °C 8.7 °C 1015.1 hPa Calm     94 % 0 mm
05:35 9.5 °C 8.6 °C 1015.5 hPa Calm     94 % 0 mm
05:39 9.4 °C 8.4 °C 1015.5 hPa Calm     94 % 0 mm
05:45 9.2 °C 8.3 °C 1015.5 hPa Calm     94 % 0 mm
05:50 8.8 °C 7.9 °C 1015.5 hPa Calm     94 % 0 mm
05:55 8.6 °C 7.7 °C 1015.5 hPa Calm     94 % 0 mm
06:00 8.4 °C 7.5 °C 1015.5 hPa Calm     94 % 0 mm
06:05 8.2 °C 7.3 °C 1015.5 hPa Calm     94 % 0 mm
06:10 8.1 °C 7.2 °C 1015.5 hPa Calm     94 % 0 mm
06:15 8.1 °C 7.3 °C 1015.8 hPa Calm     95 % 0 mm
06:20 8.1 °C 7.3 °C 1015.8 hPa SW 1.4 km/h 3.2 km/h 95 % 0 mm
06:25 8.2 °C 7.4 °C 1015.8 hPa SW 3.7 km/h 5.6 km/h 95 % 0 mm
06:30 8.9 °C 8.3 °C 1015.5 hPa SW 1.9 km/h 5.6 km/h 96 % 0 mm
06:35 9.1 °C 8.5 °C 1015.5 hPa Calm   1.9 km/h 96 % 0 mm
06:40 8.9 °C 8.2 °C 1015.5 hPa Calm     95 % 0 mm
06:45 8.7 °C 7.8 °C 1015.5 hPa Calm     94 % 0 mm
06:50 8.3 °C 7.4 °C 1015.5 hPa Calm     94 % 0 mm
06:56 7.9 °C 7 °C 1015.5 hPa Calm     94 % 0 mm
07:00 7.7 °C 6.8 °C 1015.5 hPa Calm     94 % 0 mm
07:06 7.6 °C 6.7 °C 1015.5 hPa Calm     94 % 0 mm
07:11 7.5 °C 6.8 °C 1015.5 hPa Calm     95 % 0 mm
07:16 7.4 °C 6.7 °C 1015.8 hPa Calm     95 % 0 mm
07:21 7.6 °C 7 °C 1015.8 hPa Calm     96 % 0 mm
07:26 7.8 °C 7.2 °C 1015.8 hPa Calm     96 % 0 mm
07:31 7.8 °C 7.1 °C 1015.8 hPa Calm     95 % 0 mm
07:36 7.7 °C 6.9 °C 1015.8 hPa Calm   3.7 km/h 95 % 0 mm
07:41 7.7 °C 6.9 °C 1016.1 hPa Calm     95 % 0 mm
07:46 7.7 °C 6.9 °C 1016.1 hPa Calm     95 % 0 mm
07:51 7.9 °C 7.1 °C 1016.1 hPa North 0.8 km/h 1.9 km/h 95 % 0 mm
07:56 8.1 °C 7.4 °C 1016.1 hPa Calm     96 % 0 mm
08:01 8.5 °C 7.9 °C 1016.1 hPa Calm     96 % 0 mm
08:06 8.7 °C 8.1 °C 1016.1 hPa Calm     96 % 0 mm
08:11 9.1 °C 8.4 °C 1016.1 hPa Calm     96 % 0 mm
08:16 9.6 °C 9 °C 1016.1 hPa Calm     96 % 0 mm
08:21 10 °C 9.6 °C 1016.1 hPa Calm     97 % 0 mm
08:26 10.6 °C 9.9 °C 1016.1 hPa Calm     96 % 0 mm
08:31 10.6 °C 10 °C 1016.1 hPa Calm     96 % 0 mm
08:36 10.7 °C 9.9 °C 1016.1 hPa Calm     95 % 0 mm
08:41 11 °C 10.4 °C 1016.1 hPa Calm     96 % 0 mm
08:46 11.4 °C 10.8 °C 1016.1 hPa Calm     96 % 0 mm
08:51 12.2 °C 11.7 °C 1016.1 hPa Calm     97 % 0 mm
08:56 12.7 °C 12.3 °C 1016.1 hPa SW 0.6 km/h 3.2 km/h 97 % 0 mm
09:01 13 °C 12.4 °C 1016.1 hPa Calm   1.6 km/h 96 % 0 mm
09:06 13.2 °C 12.6 °C 1016.1 hPa Calm     96 % 0 mm
09:11 13.6 °C 12.8 °C 1016.1 hPa SW 2.4 km/h 3.7 km/h 95 % 0 mm
09:16 13.7 °C 12.7 °C 1016.1 hPa SW 3.4 km/h 5.6 km/h 94 % 0 mm
09:21 13.8 °C 12.8 °C 1016.1 hPa SW 2.6 km/h 4.8 km/h 94 % 0 mm
09:26 13.8 °C 12.6 °C 1016.1 hPa SW 1 km/h 3.2 km/h 92 % 0 mm
09:31 14.2 °C 12.9 °C 1016.1 hPa Calm     92 % 0 mm
09:36 14.4 °C 12.6 °C 1016.1 hPa SSW 1 km/h 1.9 km/h 89 % 0 mm
09:41 14.7 °C 12.4 °C 1016.1 hPa SW 0.6 km/h 3.7 km/h 86 % 0 mm
09:46 15.2 °C 12.3 °C 1016.1 hPa Calm   1.9 km/h 83 % 0 mm
09:51 15.7 °C 11.4 °C 1016.1 hPa SW 5.6 km/h 5.6 km/h 76 % 0 mm
09:56 15.8 °C 10.8 °C 1015.8 hPa SW 0.3 km/h 3.7 km/h 72 % 0 mm
10:01 15.7 °C 10.5 °C 1015.8 hPa SW 4.2 km/h 5.6 km/h 71 % 0 mm
10:06 15.6 °C 10.1 °C 1015.8 hPa SW 1.6 km/h 3.7 km/h 70 % 0 mm
10:11 15.8 °C 9.7 °C 1015.8 hPa SW 5 km/h 9.3 km/h 67 % 0 mm
10:16 15.8 °C 9.9 °C 1015.8 hPa SW 4.8 km/h 5.6 km/h 68 % 0 mm
10:21 15.9 °C 9.8 °C 1015.8 hPa Calm   3.7 km/h 67 % 0 mm
10:26 15.8 °C 9.2 °C 1015.8 hPa SW 9.7 km/h 11.3 km/h 65 % 0 mm
10:31 15.7 °C 9.3 °C 1015.8 hPa SW 0.2 km/h 5.6 km/h 66 % 0 mm
10:36 15.8 °C 9.4 °C 1015.8 hPa WSW 7.4 km/h 11.1 km/h 66 % 0 mm
10:41 15.8 °C 9.5 °C 1015.8 hPa WSW 6.1 km/h 9.3 km/h 66 % 0 mm
10:46 16 °C 9.7 °C 1015.5 hPa WSW 2.4 km/h 5.6 km/h 66 % 0 mm
10:51 15.9 °C 9.4 °C 1015.5 hPa South 6.9 km/h 9.7 km/h 65 % 0 mm
10:56 15.7 °C 9.4 °C 1015.5 hPa South 4 km/h 5.6 km/h 66 % 0 mm
11:01 16.1 °C 9.3 °C 1015.5 hPa SW 11.6 km/h 18.5 km/h 64 % 0 mm
11:06 15.9 °C 9.1 °C 1015.5 hPa North 7.4 km/h 9.3 km/h 64 % 0 mm
11:11 16.2 °C 9.3 °C 1015.5 hPa WSW 8 km/h 16.7 km/h 64 % 0 mm
11:16 16.2 °C 8.9 °C 1015.5 hPa WSW 9.3 km/h 13 km/h 62 % 0 mm
11:21 16 °C 8.9 °C 1015.5 hPa WSW 5.8 km/h 8 km/h 63 % 0 mm
11:26 16.5 °C 9.2 °C 1015.5 hPa North 10.8 km/h 18.5 km/h 62 % 0 mm
11:31 16.7 °C 8.9 °C 1015.5 hPa West 7.2 km/h 11.3 km/h 60 % 0 mm
11:36 16.6 °C 8.8 °C 1015.1 hPa West 2.1 km/h 5.6 km/h 60 % 0 mm
11:41 16.8 °C 8.9 °C 1015.1 hPa West 5.3 km/h 5.6 km/h 60 % 0 mm
11:46 17.2 °C 8.9 °C 1015.1 hPa WSW 10.5 km/h 13 km/h 58 % 0 mm
11:51 17.2 °C 8.9 °C 1015.1 hPa North 6.4 km/h 11.1 km/h 58 % 0 mm
11:56 16.9 °C 8.3 °C 1015.1 hPa West 2.4 km/h 8 km/h 57 % 0 mm
12:01 17 °C 8.7 °C 1015.1 hPa North 3.1 km/h 9.3 km/h 58 % 0 mm
12:06 17.7 °C 9.1 °C 1014.8 hPa West 8.9 km/h 13 km/h 57 % 0 mm
12:11 17.6 °C 8.4 °C 1014.8 hPa WSW 5.3 km/h 9.3 km/h 55 % 0 mm
12:16 17.4 °C 8.5 °C 1014.8 hPa WSW 0.5 km/h 5.6 km/h 56 % 0 mm
12:21 17.9 °C 9 °C 1014.4 hPa WSW 8.5 km/h 11.3 km/h 56 % 0 mm
12:26 17.9 °C 9.1 °C 1014.4 hPa SW 5 km/h 14.5 km/h 56 % 0 mm
12:31 17.9 °C 8.7 °C 1014.4 hPa SSW 6.4 km/h 14.8 km/h 55 % 0 mm
12:36 18.1 °C 8.6 °C 1014.4 hPa SSW 8.4 km/h 9.3 km/h 54 % 0 mm
12:41 18.1 °C 8.7 °C 1014.1 hPa SW 3.7 km/h 9.7 km/h 54 % 0 mm
12:46 18.2 °C 8.5 °C 1014.1 hPa South 6.3 km/h 11.3 km/h 53 % 0 mm
12:51 18.4 °C 8.7 °C 1014.4 hPa South 10.5 km/h 11.1 km/h 53 % 0 mm
12:56 18.4 °C 8.6 °C 1014.1 hPa South 4.2 km/h 7.4 km/h 53 % 0 mm
13:01 18.6 °C 8 °C 1014.1 hPa North 14.2 km/h 14.8 km/h 50 % 0 mm
13:07 18.5 °C 7.6 °C 1014.1 hPa West 11.3 km/h 18.5 km/h 49 % 0 mm
13:12 18.3 °C 8 °C 1014.1 hPa West 15.4 km/h 22.5 km/h 51 % 0 mm
13:17 18.7 °C 8.1 °C 1014.1 hPa WNW 15.1 km/h 18.5 km/h 50 % 0 mm
13:22 18.6 °C 8.3 °C 1014.1 hPa West 10 km/h 16.7 km/h 51 % 0 mm
13:27 18.3 °C 8 °C 1013.8 hPa North 7.1 km/h 11.1 km/h 51 % 0 mm
13:32 18.2 °C 8.2 °C 1013.8 hPa North 8.4 km/h 13 km/h 52 % 0 mm
13:36 18.1 °C 7.8 °C 1013.8 hPa WNW 10.5 km/h 11.1 km/h 51 % 0 mm
13:42 18.1 °C 7.8 °C 1013.8 hPa North 9 km/h 14.8 km/h 51 % 0 mm
13:47 18.1 °C 7.8 °C 1013.8 hPa WNW 3.5 km/h 5.6 km/h 51 % 0 mm
13:52 18.5 °C 7.9 °C 1013.8 hPa WNW 6.8 km/h 11.1 km/h 50 % 0 mm
13:56 18.9 °C 7.7 °C 1013.8 hPa WNW 1 km/h 5.6 km/h 48 % 0 mm
14:01 19.5 °C 7.9 °C 1013.8 hPa WNW 7.6 km/h 12.9 km/h 47 % 0 mm
14:06 19.6 °C 7.3 °C 1013.8 hPa WNW 12.2 km/h 18.5 km/h 45 % 0 mm
14:11 19.6 °C 7.3 °C 1013.8 hPa West 17.1 km/h 19.3 km/h 45 % 0 mm
14:16 19.6 °C 8.3 °C 1013.4 hPa North 11.1 km/h 18.5 km/h 48 % 0 mm
14:21 19.2 °C 7.9 °C 1013.4 hPa WSW 11.4 km/h 16.7 km/h 48 % 0 mm
14:26 18.9 °C 7.4 °C 1013.4 hPa West 14.3 km/h 16.7 km/h 47 % 0 mm
14:31 18.6 °C 7.4 °C 1013.4 hPa WSW 10.6 km/h 14.8 km/h 48 % 0 mm
14:36 18.5 °C 7.3 °C 1013.4 hPa WNW 18.5 km/h 22.2 km/h 48 % 0 mm
14:41 18.6 °C 7.4 °C 1013.4 hPa West 9.2 km/h 13 km/h 48 % 0 mm
14:46 19.1 °C 7.8 °C 1013.4 hPa WSW 15 km/h 18.5 km/h 48 % 0 mm
14:51 18.8 °C 7.8 °C 1013.8 hPa West 10.3 km/h 13 km/h 49 % 0 mm
14:56 18.7 °C 7.8 °C 1013.8 hPa WSW 7.6 km/h 13 km/h 49 % 0 mm
15:01 19.2 °C 7.6 °C 1013.8 hPa West 13.5 km/h 18.5 km/h 47 % 0 mm
15:06 19.5 °C 7.6 °C 1013.8 hPa West 12.2 km/h 18.5 km/h 46 % 0 mm
15:11 19.7 °C 7.1 °C 1013.8 hPa West 19.2 km/h 31.5 km/h 44 % 0 mm
15:16 19.8 °C 6.8 °C 1013.8 hPa West 16.6 km/h 20.4 km/h 43 % 0 mm
15:21 19.5 °C 6.9 °C 1013.8 hPa North 15 km/h 18.5 km/h 44 % 0 mm
15:26 19.6 °C 6.9 °C 1013.8 hPa WSW 12.9 km/h 18.5 km/h 44 % 0 mm
15:31 19.3 °C 7.1 °C 1013.8 hPa SW 13.2 km/h 18.5 km/h 45 % 0 mm
15:36 19.1 °C 7.2 °C 1013.8 hPa West 14.2 km/h 24.1 km/h 46 % 0 mm
15:41 18.9 °C 7 °C 1013.8 hPa West 11.1 km/h 16.7 km/h 46 % 0 mm
15:46 18.9 °C 7.1 °C 1013.8 hPa West 8.5 km/h 11.1 km/h 46 % 0 mm
15:51 18.8 °C 6.9 °C 1013.8 hPa WSW 10.5 km/h 14.8 km/h 46 % 0 mm
15:56 18.4 °C 6.9 °C 1013.8 hPa WSW 10.1 km/h 13 km/h 47 % 0 mm
16:01 18.2 °C 6.7 °C 1013.8 hPa West 9.5 km/h 14.8 km/h 47 % 0 mm
16:06 18.2 °C 7.3 °C 1013.8 hPa West 5 km/h 7.4 km/h 49 % 0 mm
16:11 18.2 °C 6.9 °C 1013.4 hPa West 6.6 km/h 8 km/h 48 % 0 mm
16:16 18.3 °C 7.1 °C 1013.8 hPa West 8 km/h 14.5 km/h 48 % 0 mm
16:21 18.5 °C 6.9 °C 1013.8 hPa West 7.6 km/h 11.1 km/h 47 % 0 mm
16:26 18.7 °C 7.4 °C 1013.4 hPa West 7.2 km/h 8 km/h 48 % 0 mm
16:31 18.6 °C 7.4 °C 1013.4 hPa West 6.8 km/h 9.3 km/h 48 % 0 mm
16:36 18.4 °C 7.2 °C 1013.4 hPa West 6.8 km/h 12.9 km/h 48 % 0 mm
16:37 18.4 °C 7.2 °C 1013.4 hPa West 8.9 km/h 13 km/h 48 % 0 mm
16:42 18.3 °C 7.4 °C 1013.4 hPa West 6.6 km/h 9.3 km/h 49 % 0 mm
16:47 18.2 °C 7.3 °C 1013.4 hPa West 4.7 km/h 5.6 km/h 49 % 0 mm
16:52 18.1 °C 7.5 °C 1013.8 hPa WNW 7.9 km/h 9.3 km/h 50 % 0 mm
16:57 18.1 °C 7.4 °C 1013.8 hPa WNW 7.7 km/h 7.7 km/h 50 % 0 mm
17:02 18 °C 7.7 °C 1013.8 hPa WNW 3.4 km/h 5.6 km/h 51 % 0 mm
17:07 17.9 °C 7.7 °C 1013.8 hPa WNW 6.9 km/h 7.4 km/h 51 % 0 mm
17:12 17.9 °C 7.6 °C 1013.8 hPa WNW 9.3 km/h 13 km/h 51 % 0 mm
17:17 17.9 °C 7.9 °C 1013.8 hPa WNW 7.2 km/h 11.1 km/h 52 % 0 mm
17:22 17.8 °C 7.8 °C 1013.8 hPa WNW 6.8 km/h 11.3 km/h 52 % 0 mm
17:27 17.8 °C 7.8 °C 1013.8 hPa WNW 7.1 km/h 9.3 km/h 52 % 0 mm
17:32 17.8 °C 8.1 °C 1013.8 hPa WNW 5.3 km/h 7.4 km/h 53 % 0 mm
17:37 17.7 °C 7.9 °C 1013.8 hPa WNW 3.2 km/h 7.4 km/h 53 % 0 mm
17:42 17.6 °C 7.9 °C 1013.8 hPa WNW 5.6 km/h 7.4 km/h 53 % 0 mm
17:47 17.6 °C 7.9 °C 1013.8 hPa WNW 2.3 km/h 5.6 km/h 53 % 0 mm
17:52 17.6 °C 8.1 °C 1014.1 hPa WNW 4.5 km/h 7.4 km/h 54 % 0 mm
17:57 17.4 °C 8.1 °C 1014.1 hPa WNW 3.5 km/h 5.6 km/h 54 % 0 mm
18:02 17.4 °C 8.3 °C 1014.1 hPa WNW 7.6 km/h 8 km/h 55 % 0 mm
18:07 17.3 °C 8.2 °C 1014.1 hPa WNW 4.2 km/h 5.6 km/h 55 % 0 mm
18:12 17.3 °C 8.4 °C 1014.4 hPa WNW 10.1 km/h 10.1 km/h 56 % 0 mm
18:17 17.3 °C 8.7 °C 1014.4 hPa WNW 5 km/h 7.4 km/h 57 % 0 mm
18:22 17.2 °C 8.6 °C 1014.4 hPa WNW 6.4 km/h 9.3 km/h 57 % 0 mm
18:27 17.1 °C 8.8 °C 1014.4 hPa WNW 11.1 km/h 13 km/h 58 % 0 mm
18:32 17.1 °C 9 °C 1014.4 hPa WNW 9 km/h 14.8 km/h 59 % 0 mm
18:37 17.1 °C 9 °C 1014.4 hPa WNW 11.9 km/h 17.7 km/h 59 % 0 mm
18:42 17 °C 9.2 °C 1014.8 hPa WNW 10 km/h 13 km/h 60 % 0 mm
18:47 17 °C 9.2 °C 1014.8 hPa WNW 7.1 km/h 7.4 km/h 60 % 0 mm
18:52 16.9 °C 9.4 °C 1014.8 hPa WNW 9.2 km/h 13 km/h 61 % 0 mm
18:57 16.9 °C 9.3 °C 1014.8 hPa WNW 10.5 km/h 11.1 km/h 61 % 0 mm
19:02 16.8 °C 9.4 °C 1014.8 hPa WNW 6.1 km/h 9.3 km/h 62 % 0 mm
19:07 16.7 °C 9.7 °C 1014.8 hPa WNW 10.8 km/h 16.7 km/h 63 % 0 mm
19:12 16.6 °C 9.6 °C 1015.1 hPa WNW 8.9 km/h 13 km/h 63 % 0 mm
19:17 16.5 °C 9.7 °C 1015.1 hPa WNW 7.6 km/h 9.7 km/h 64 % 0 mm
19:22 16.4 °C 9.6 °C 1015.1 hPa WNW 7.1 km/h 11.3 km/h 64 % 0 mm
19:27 16.3 °C 9.5 °C 1015.1 hPa WNW 6.6 km/h 7.4 km/h 64 % 0 mm
19:33 16.2 °C 9.6 °C 1015.1 hPa WNW 5.6 km/h 7.4 km/h 65 % 0 mm
19:37 16.1 °C 9.5 °C 1015.1 hPa WNW 8.4 km/h 11.3 km/h 65 % 0 mm
19:42 16.1 °C 9.5 °C 1015.1 hPa WNW 8.7 km/h 16.7 km/h 65 % 0 mm
19:47 16 °C 9.7 °C 1015.5 hPa WNW 8.7 km/h 14.8 km/h 66 % 0 mm
19:52 15.9 °C 9.6 °C 1015.5 hPa WNW 8.5 km/h 11.3 km/h 66 % 0 mm
19:57 15.8 °C 9.4 °C 1015.5 hPa WNW 8.2 km/h 11.1 km/h 66 % 0 mm
20:02 15.7 °C 9.3 °C 1015.5 hPa WNW 5.3 km/h 9.3 km/h 66 % 0 mm
20:07 15.5 °C 9.4 °C 1015.5 hPa WNW 5.3 km/h 6.4 km/h 67 % 0 mm
20:12 15.3 °C 9.2 °C 1015.5 hPa WNW 6.4 km/h 7.4 km/h 67 % 0 mm
20:17 15.2 °C 9.3 °C 1015.5 hPa WNW 4.7 km/h 5.6 km/h 68 % 0 mm
20:22 14.9 °C 9.3 °C 1015.5 hPa WNW 2.7 km/h 5.6 km/h 69 % 0 mm
20:27 14.7 °C 9.1 °C 1015.8 hPa WNW 3.7 km/h 5.6 km/h 69 % 0 mm
20:32 14.5 °C 9.1 °C 1015.8 hPa WNW 2.1 km/h 3.7 km/h 70 % 0 mm
20:37 14.3 °C 8.9 °C 1015.8 hPa WNW 0.6 km/h 1.6 km/h 70 % 0 mm
20:42 14.2 °C 9.1 °C 1015.5 hPa WNW 1.9 km/h 3.7 km/h 71 % 0 mm
20:52 13.8 °C 8.8 °C 1015.8 hPa Calm   1.9 km/h 72 % 0 mm
20:57 13.4 °C 8.4 °C 1015.8 hPa WNW 3.1 km/h 5.6 km/h 72 % 0 mm
21:02 13.2 °C 8.6 °C 1015.8 hPa WNW 3.2 km/h 5.6 km/h 74 % 0 mm
21:07 12.9 °C 8.6 °C 1015.8 hPa WNW 5.1 km/h 5.6 km/h 75 % 0 mm
21:12 12.7 °C 8.3 °C 1015.8 hPa WNW 3.7 km/h 5.6 km/h 75 % 0 mm
21:17 12.5 °C 8.6 °C 1015.8 hPa WNW 5.5 km/h 6.4 km/h 77 % 0 mm
21:22 12.5 °C 8.6 °C 1016.1 hPa WNW 4.7 km/h 7.4 km/h 77 % 0 mm
21:27 12.4 °C 8.5 °C 1016.1 hPa WNW 3.9 km/h 5.6 km/h 77 % 0 mm
21:32 12.3 °C 8.6 °C 1016.1 hPa WNW 2.9 km/h 3.7 km/h 78 % 0 mm
21:37 12.2 °C 8.5 °C 1015.8 hPa Calm   1.9 km/h 78 % 0 mm
21:43 12.2 °C 8.4 °C 1016.1 hPa Calm     78 % 0 mm
21:48 12.1 °C 8.5 °C 1015.8 hPa WNW 0.5 km/h   79 % 0 mm
21:53 12.1 °C 8.5 °C 1016.1 hPa Calm   1.9 km/h 79 % 0 mm
21:58 11.9 °C 8.2 °C 1015.8 hPa Calm     78 % 0 mm
22:03 11.6 °C 7.8 °C 1015.8 hPa Calm     78 % 0 mm
22:08 11.2 °C 7.9 °C 1016.1 hPa Calm     80 % 0 mm
22:13 11.1 °C 7.9 °C 1016.1 hPa WNW 1.4 km/h 3.7 km/h 81 % 0 mm
22:18 10.9 °C 8 °C 1016.1 hPa Calm     82 % 0 mm
22:23 10.9 °C 7.9 °C 1016.1 hPa Calm     82 % 0 mm
22:28 10.8 °C 8.1 °C 1016.1 hPa Calm     83 % 0 mm
22:33 10.6 °C 7.8 °C 1016.1 hPa Calm     83 % 0 mm
22:38 10.4 °C 7.6 °C 1016.1 hPa Calm     83 % 0 mm
22:43 10.3 °C 7.7 °C 1016.1 hPa Calm     84 % 0 mm
22:48 10.2 °C 7.6 °C 1016.1 hPa Calm     84 % 0 mm
22:53 10 °C 7.4 °C 1015.8 hPa Calm     84 % 0 mm
22:58 9.8 °C 7.4 °C 1015.8 hPa Calm     85 % 0 mm
23:03 9.8 °C 7.6 °C 1016.1 hPa Calm     86 % 0 mm
23:08 9.7 °C 7.4 °C 1016.1 hPa Calm     86 % 0 mm
23:13 9.6 °C 7.3 °C 1016.1 hPa Calm     86 % 0 mm
23:18 9.6 °C 7.5 °C 1016.1 hPa Calm     87 % 0 mm
23:23 9.6 °C 7.5 °C 1016.1 hPa WNW 3.4 km/h 5.6 km/h 87 % 0 mm
23:26 9.6 °C 7.6 °C 1016.1 hPa WNW 2.3 km/h 3.7 km/h 87 % 0 mm
23:28 9.6 °C 7.6 °C 1016.1 hPa WNW 1.8 km/h 3.7 km/h 87 % 0 mm
23:33 9.6 °C 7.6 °C 1016.1 hPa Calm     87 % 0 mm
23:38 9.6 °C 7.6 °C 1016.1 hPa Calm     87 % 0 mm
23:43 9.4 °C 7.2 °C 1016.1 hPa Calm     86 % 0 mm
23:48 9.3 °C 7.3 °C 1016.1 hPa Calm     87 % 0 mm
23:53 9.3 °C 7.2 °C 1016.1 hPa Calm     87 % 0 mm
23:58 9.2 °C 7.1 °C 1016.1 hPa Calm     87 % 0 mm
Ararat Weather
Compliments of Weather Underground - 2.5 mb
Click here to send mail.


ABOUT

Live weather data from Ararat, Victoria, Australia, 3377
Data uploaded from Cumulus every 5 minutes to Weather Underground.
This site then downloads the raw data for formatting and display.
Metric and imperial data can be displayed. Graphs and historical data available.
Includes Sun and Moon times and rain image live from BOM.

Check out Ararat Weather on Facebook, Twitter and Google +

Help support ongoing costs by checking out the ads





Follow @AraratWeather